Time;durP1;ratioP1;P1;durP2;ratioP2;P2;SDS_P1;SDS_P2;PMS_P1;PMS_P2;Temp;Humidity;BMP_temperature;BMP_pressure;BME280_temperature;BME280_humidity;BME280_pressure;Samples;Min_cycle;Max_cycle;Signal;HPM_P1;HPM_P2
2023/09/09 00:00:51;;;;;;;22.60;20.52;;;14.50;99.90;;;;;;4964528;28;20063;-73
2023/09/09 00:03:19;;;;;;;26.20;21.73;;;14.40;99.90;;;;;;4986786;28;20062;-74
2023/09/09 00:05:46;;;;;;;22.90;20.67;;;14.50;99.90;;;;;;4974701;28;20052;-74
2023/09/09 00:08:13;;;;;;;22.30;20.45;;;14.40;99.90;;;;;;4972563;28;20107;-74
2023/09/09 00:10:40;;;;;;;24.92;22.92;;;14.40;99.90;;;;;;4969872;28;20051;-72
2023/09/09 00:13:07;;;;;;;25.45;23.00;;;14.40;99.90;;;;;;4986857;28;20061;-74
2023/09/09 00:15:34;;;;;;;24.73;22.30;;;14.40;99.90;;;;;;4964766;28;20047;-75
2023/09/09 00:18:02;;;;;;;24.45;22.00;;;14.50;99.90;;;;;;4974795;28;20526;-74
2023/09/09 00:20:34;;;;;;;27.33;24.77;;;14.40;99.90;;;;;;4984806;28;21608;-73
2023/09/09 00:23:08;;;;;;;27.17;24.77;;;14.50;99.90;;;;;;4954839;28;20045;-74
2023/09/09 00:25:39;;;;;;;25.60;22.63;;;14.50;99.90;;;;;;4988054;28;20049;-74
2023/09/09 00:28:08;;;;;;;23.85;21.60;;;14.40;99.90;;;;;;4963745;28;20057;-75
2023/09/09 00:30:35;;;;;;;22.52;20.48;;;14.30;99.90;;;;;;4970070;28;20050;-75
2023/09/09 00:33:02;;;;;;;22.90;21.10;;;14.30;99.90;;;;;;4961534;28;20592;-75
2023/09/09 00:35:32;;;;;;;24.63;22.52;;;14.20;99.90;;;;;;4970705;28;20094;-74
2023/09/09 00:37:59;;;;;;;23.75;21.67;;;14.30;99.90;;;;;;4953055;28;20053;-73
2023/09/09 00:40:26;;;;;;;24.15;22.02;;;14.20;99.90;;;;;;4958964;28;20050;-74
2023/09/09 00:42:53;;;;;;;24.25;22.25;;;14.20;99.90;;;;;;4974899;28;20653;-75
2023/09/09 00:45:19;;;;;;;24.95;22.75;;;14.10;99.90;;;;;;4987034;28;20054;-75
2023/09/09 00:47:46;;;;;;;25.77;23.13;;;14.30;99.90;;;;;;4960579;28;20134;-74
2023/09/09 00:50:13;;;;;;;24.63;22.33;;;14.20;99.90;;;;;;4959421;28;20040;-74
2023/09/09 00:52:42;;;;;;;25.95;23.65;;;14.20;99.90;;;;;;4962758;28;20105;-75
2023/09/09 00:55:11;;;;;;;25.98;23.67;;;14.20;99.90;;;;;;4943093;28;20034;-75
2023/09/09 00:57:38;;;;;;;26.33;23.73;;;14.10;99.90;;;;;;4964624;28;20054;-75
2023/09/09 01:00:11;;;;;;;28.58;25.80;;;14.00;99.90;;;;;;4962948;28;20057;-75
2023/09/09 01:02:41;;;;;;;25.83;23.42;;;14.10;99.90;;;;;;4977945;28;20043;-75
2023/09/09 01:05:10;;;;;;;24.13;21.83;;;14.10;99.90;;;;;;4982513;28;20042;-75
2023/09/09 01:07:43;;;;;;;24.30;22.17;;;14.00;99.90;;;;;;4971243;28;20042;-73
2023/09/09 01:10:10;;;;;;;26.17;23.73;;;14.00;99.90;;;;;;4964155;28;20052;-75
2023/09/09 01:12:37;;;;;;;25.85;23.60;;;14.00;99.90;;;;;;5049486;28;20043;-75
2023/09/09 01:15:06;;;;;;;24.40;22.08;;;14.00;99.90;;;;;;4980075;28;20043;-73
2023/09/09 01:17:35;;;;;;;25.15;23.02;;;13.90;99.90;;;;;;4970566;28;20042;-74
2023/09/09 01:20:07;;;;;;;27.90;25.30;;;13.90;99.90;;;;;;4956294;28;20403;-76
2023/09/09 01:22:37;;;;;;;26.38;23.92;;;13.80;99.90;;;;;;4981708;28;20233;-75
2023/09/09 01:25:05;;;;;;;26.75;24.27;;;13.90;99.90;;;;;;4964839;28;20148;-75
2023/09/09 01:27:32;;;;;;;24.85;22.73;;;13.90;99.90;;;;;;4966558;28;20046;-73
2023/09/09 01:29:59;;;;;;;25.77;23.33;;;13.80;99.90;;;;;;4981177;28;20641;-74
2023/09/09 01:32:27;;;;;;;28.50;23.30;;;13.90;99.90;;;;;;4976443;28;20653;-74
2023/09/09 01:34:53;;;;;;;27.15;24.45;;;14.00;99.90;;;;;;4965454;28;20431;-74
2023/09/09 01:37:20;;;;;;;27.95;25.23;;;14.00;99.90;;;;;;4951703;28;20615;-74
2023/09/09 01:39:48;;;;;;;29.67;26.77;;;14.00;99.90;;;;;;4966085;28;20466;-72
2023/09/09 01:42:15;;;;;;;29.67;26.83;;;14.20;99.90;;;;;;4979461;28;21147;-74
2023/09/09 01:44:48;;;;;;;29.70;26.77;;;14.20;99.90;;;;;;4966698;28;20054;-74
2023/09/09 01:47:14;;;;;;;31.60;28.30;;;14.30;99.90;;;;;;5037019;28;20065;-74
2023/09/09 01:49:42;;;;;;;28.83;25.90;;;14.30;99.90;;;;;;4968494;28;20058;-74
2023/09/09 01:52:09;;;;;;;31.15;27.77;;;14.20;99.90;;;;;;4978626;28;20185;-74
2023/09/09 01:54:36;;;;;;;26.05;23.50;;;14.00;99.90;;;;;;4966374;28;20077;-74
2023/09/09 01:57:03;;;;;;;25.88;23.58;;;13.80;99.90;;;;;;4967102;28;20038;-74
2023/09/09 01:59:30;;;;;;;28.90;26.20;;;13.70;99.90;;;;;;4958307;28;20129;-75
2023/09/09 02:01:57;;;;;;;28.02;25.50;;;13.80;99.90;;;;;;4955013;28;20046;-72
2023/09/09 02:04:23;;;;;;;30.05;26.77;;;13.80;99.90;;;;;;4954886;28;20146;-73
2023/09/09 02:06:50;;;;;;;28.00;25.30;;;13.80;99.90;;;;;;4989720;28;20049;-73
2023/09/09 02:09:17;;;;;;;27.65;25.08;;;13.70;99.90;;;;;;4978065;28;20634;-74
2023/09/09 02:11:44;;;;;;;29.63;26.73;;;13.70;99.90;;;;;;4984063;28;21533;-74
2023/09/09 02:14:11;;;;;;;29.38;26.52;;;13.70;99.90;;;;;;4960718;28;20042;-74
2023/09/09 02:16:37;;;;;;;28.40;25.98;;;13.70;99.90;;;;;;4982973;28;20035;-73
2023/09/09 02:19:04;;;;;;;29.92;27.15;;;13.50;99.90;;;;;;4962802;28;20057;-74
2023/09/09 02:21:31;;;;;;;28.40;25.83;;;13.70;99.90;;;;;;4975323;28;20042;-74
2023/09/09 02:23:57;;;;;;;28.65;25.95;;;13.70;99.90;;;;;;4945845;28;20515;-74
2023/09/09 02:26:25;;;;;;;30.23;27.33;;;13.60;99.90;;;;;;4984380;28;20042;-74
2023/09/09 02:28:53;;;;;;;29.13;26.05;;;13.60;99.90;;;;;;5025900;28;20053;-73
2023/09/09 02:31:20;;;;;;;30.23;27.15;;;13.60;99.90;;;;;;4970930;28;20581;-73
2023/09/09 02:33:47;;;;;;;29.88;26.90;;;13.50;99.90;;;;;;4978323;28;20046;-74
2023/09/09 02:36:13;;;;;;;33.88;27.92;;;13.60;99.90;;;;;;4972552;28;20150;-75
2023/09/09 02:38:40;;;;;;;29.17;26.42;;;13.80;99.90;;;;;;4973507;28;20126;-74
2023/09/09 02:41:07;;;;;;;27.83;25.25;;;13.60;99.90;;;;;;4969799;28;20152;-74
2023/09/09 02:43:33;;;;;;;29.10;26.38;;;13.50;99.90;;;;;;4965485;28;20445;-74
2023/09/09 02:46:03;;;;;;;31.33;28.17;;;13.40;99.90;;;;;;4960247;28;20048;-73
2023/09/09 02:48:31;;;;;;;29.25;26.45;;;13.40;99.90;;;;;;4972771;28;20139;-73
2023/09/09 02:50:57;;;;;;;29.90;27.08;;;13.40;99.90;;;;;;4965307;28;20150;-75
2023/09/09 02:53:24;;;;;;;30.45;27.65;;;13.30;99.90;;;;;;4963988;28;20032;-73
2023/09/09 02:55:51;;;;;;;28.20;25.60;;;13.30;99.90;;;;;;4970491;28;20092;-74
2023/09/09 02:58:18;;;;;;;27.95;25.25;;;13.20;99.90;;;;;;4955128;28;20717;-75
2023/09/09 03:00:45;;;;;;;27.95;25.50;;;13.20;99.90;;;;;;4951531;28;20051;-74
2023/09/09 03:03:12;;;;;;;28.83;26.15;;;13.10;99.90;;;;;;4954096;28;20051;-75
2023/09/09 03:05:39;;;;;;;30.55;27.65;;;13.00;99.90;;;;;;4948317;28;20042;-74
2023/09/09 03:08:06;;;;;;;29.77;26.95;;;13.00;99.90;;;;;;4940831;28;20043;-75
2023/09/09 03:10:33;;;;;;;30.73;26.65;;;13.10;99.90;;;;;;4978137;28;20188;-74
2023/09/09 03:13:00;;;;;;;28.83;26.13;;;13.10;99.90;;;;;;4976259;28;20042;-74
2023/09/09 03:15:26;;;;;;;27.27;24.75;;;13.10;99.90;;;;;;4969642;28;20047;-74
2023/09/09 03:17:53;;;;;;;29.13;26.13;;;12.90;99.90;;;;;;4976551;28;20045;-74
2023/09/09 03:20:20;;;;;;;29.90;27.05;;;12.90;99.90;;;;;;4962360;28;20109;-75
2023/09/09 03:22:50;;;;;;;31.25;28.42;;;12.90;99.90;;;;;;4977702;28;20035;-75
2023/09/09 03:25:17;;;;;;;29.58;26.50;;;12.90;99.90;;;;;;4967757;28;20077;-75
2023/09/09 03:27:44;;;;;;;29.50;26.75;;;12.70;99.90;;;;;;4958727;28;20138;-74
2023/09/09 03:30:11;;;;;;;28.80;26.20;;;12.80;99.90;;;;;;4964351;28;20377;-74
2023/09/09 03:32:38;;;;;;;27.10;24.55;;;12.80;99.90;;;;;;4977874;28;20050;-74
2023/09/09 03:35:05;;;;;;;28.45;25.83;;;12.70;99.90;;;;;;4963388;28;20467;-73
2023/09/09 03:37:32;;;;;;;29.48;26.80;;;12.70;99.90;;;;;;4959889;28;20137;-74
2023/09/09 03:39:59;;;;;;;30.48;27.60;;;12.80;99.90;;;;;;4964856;28;20027;-75
2023/09/09 03:42:26;;;;;;;29.08;26.27;;;12.80;99.90;;;;;;4954848;28;20885;-74
2023/09/09 03:44:54;;;;;;;27.88;25.13;;;12.90;99.90;;;;;;4963543;28;20045;-74
2023/09/09 03:47:21;;;;;;;31.48;28.38;;;13.00;99.90;;;;;;4952822;28;20054;-73
2023/09/09 03:49:50;;;;;;;28.77;25.98;;;13.00;99.90;;;;;;5038721;28;20304;-75
2023/09/09 03:52:17;;;;;;;29.25;26.48;;;12.80;99.90;;;;;;4959985;28;20073;-74
2023/09/09 03:54:44;;;;;;;30.02;27.25;;;12.80;99.90;;;;;;4977501;28;20058;-73
2023/09/09 03:57:10;;;;;;;31.77;28.50;;;12.70;99.90;;;;;;4960640;28;20039;-74
2023/09/09 03:59:37;;;;;;;27.23;24.85;;;12.70;99.90;;;;;;4965554;28;20038;-74
2023/09/09 04:02:04;;;;;;;33.17;28.25;;;12.70;99.90;;;;;;4959542;28;20124;-74
2023/09/09 04:04:31;;;;;;;28.48;25.58;;;12.80;99.90;;;;;;4983463;28;20038;-74
2023/09/09 04:06:58;;;;;;;28.27;25.67;;;12.90;99.90;;;;;;4950132;28;20057;-74
2023/09/09 04:09:26;;;;;;;28.75;26.00;;;12.90;99.90;;;;;;4984324;28;20418;-75
2023/09/09 04:11:54;;;;;;;31.98;28.48;;;12.80;99.90;;;;;;4980417;28;20050;-74
2023/09/09 04:14:21;;;;;;;32.17;29.13;;;12.70;99.90;;;;;;4981496;28;20542;-75
2023/09/09 04:16:47;;;;;;;32.83;29.52;;;12.70;99.90;;;;;;4958824;28;20041;-74
2023/09/09 04:19:14;;;;;;;33.00;29.80;;;12.70;99.90;;;;;;5036304;28;20634;-74
2023/09/09 04:21:41;;;;;;;33.00;29.95;;;12.60;99.90;;;;;;4955230;28;20207;-74
2023/09/09 04:24:08;;;;;;;31.75;28.48;;;12.60;99.90;;;;;;4980516;28;20130;-73
2023/09/09 04:26:35;;;;;;;33.03;29.73;;;12.50;99.90;;;;;;4978039;28;20061;-75
2023/09/09 04:29:03;;;;;;;30.73;27.73;;;12.50;99.90;;;;;;4956621;28;20495;-74
2023/09/09 04:31:30;;;;;;;28.90;26.10;;;12.70;99.90;;;;;;4957173;28;20054;-74
2023/09/09 04:33:57;;;;;;;28.50;25.85;;;12.90;99.90;;;;;;4961757;28;20076;-74
2023/09/09 04:36:24;;;;;;;31.92;28.52;;;12.90;99.90;;;;;;4956914;28;20451;-74
2023/09/09 04:38:51;;;;;;;35.88;32.13;;;12.90;99.90;;;;;;4965338;28;20050;-73
2023/09/09 04:41:18;;;;;;;35.13;30.40;;;12.90;99.90;;;;;;4955355;28;20046;-74
2023/09/09 04:43:45;;;;;;;35.97;32.15;;;13.00;99.90;;;;;;4956056;28;20050;-74
2023/09/09 04:46:12;;;;;;;35.20;31.45;;;13.00;99.90;;;;;;4968288;28;20054;-74
2023/09/09 04:48:39;;;;;;;36.35;31.10;;;12.80;99.90;;;;;;4967966;28;20107;-73
2023/09/09 04:51:06;;;;;;;35.85;32.10;;;12.70;99.90;;;;;;4973511;28;20092;-74
2023/09/09 04:53:32;;;;;;;40.00;33.22;;;12.80;99.90;;;;;;4951587;28;20126;-74
2023/09/09 04:56:00;;;;;;;34.83;31.42;;;12.90;99.90;;;;;;4969389;28;20058;-73
2023/09/09 04:58:28;;;;;;;34.83;31.17;;;12.90;99.90;;;;;;4975182;28;20137;-74
2023/09/09 05:00:58;;;;;;;32.55;29.25;;;12.90;99.90;;;;;;4963976;28;20038;-75
2023/09/09 05:03:25;;;;;;;33.13;29.63;;;12.80;99.90;;;;;;4953391;28;20524;-73
2023/09/09 05:05:52;;;;;;;34.00;30.05;;;12.80;99.90;;;;;;4959265;28;20718;-75
2023/09/09 05:08:19;;;;;;;32.72;29.48;;;12.70;99.90;;;;;;4955090;28;20058;-74
2023/09/09 05:10:46;;;;;;;31.00;27.83;;;12.60;99.90;;;;;;4961330;28;20046;-74
2023/09/09 05:13:13;;;;;;;30.42;27.63;;;12.50;99.90;;;;;;4966601;28;20161;-73
2023/09/09 05:15:40;;;;;;;31.67;28.65;;;12.50;99.90;;;;;;4958645;28;20050;-74
2023/09/09 05:18:06;;;;;;;28.90;26.50;;;12.40;99.90;;;;;;4980390;28;20123;-74
2023/09/09 05:20:33;;;;;;;30.88;27.98;;;12.30;99.90;;;;;;4955416;28;21114;-75
2023/09/09 05:23:00;;;;;;;28.67;26.27;;;12.30;99.90;;;;;;4984084;28;20069;-74
2023/09/09 05:25:27;;;;;;;28.33;25.80;;;12.30;99.90;;;;;;4947500;28;20062;-74
2023/09/09 05:27:54;;;;;;;26.92;24.77;;;12.40;99.90;;;;;;4979863;28;20053;-74
2023/09/09 05:30:21;;;;;;;26.08;23.88;;;12.40;99.90;;;;;;4980678;28;20062;-74
2023/09/09 05:32:48;;;;;;;26.63;24.27;;;12.40;99.90;;;;;;4958532;28;20058;-74
2023/09/09 05:35:15;;;;;;;28.02;25.42;;;12.40;99.90;;;;;;4958521;28;20085;-74
2023/09/09 05:37:43;;;;;;;27.75;25.17;;;12.50;99.90;;;;;;4965428;28;20932;-74
2023/09/09 05:40:10;;;;;;;27.98;25.23;;;12.50;99.90;;;;;;4942154;28;20046;-75
2023/09/09 05:42:39;;;;;;;27.17;24.55;;;12.40;99.90;;;;;;4947934;28;20623;-74
2023/09/09 05:45:08;;;;;;;28.33;25.70;;;12.40;99.90;;;;;;4962451;28;20039;-74
2023/09/09 05:47:36;;;;;;;29.33;26.63;;;12.50;99.90;;;;;;4941245;28;20088;-74
2023/09/09 05:50:05;;;;;;;31.40;28.67;;;12.50;99.90;;;;;;4957111;28;20061;-75
2023/09/09 05:52:33;;;;;;;32.25;29.05;;;12.60;99.90;;;;;;4939275;28;20050;-75
2023/09/09 05:55:00;;;;;;;29.75;27.15;;;12.80;99.90;;;;;;4951885;28;20176;-75
2023/09/09 05:57:27;;;;;;;31.73;28.70;;;12.90;99.90;;;;;;4959949;28;20139;-73
2023/09/09 05:59:55;;;;;;;32.95;29.92;;;13.10;99.90;;;;;;4964879;28;20042;-75
2023/09/09 06:02:22;;;;;;;34.88;31.48;;;13.20;99.90;;;;;;4976452;28;20111;-74
2023/09/09 06:04:49;;;;;;;32.83;29.42;;;13.20;99.90;;;;;;4963459;28;20047;-75
2023/09/09 06:07:18;;;;;;;37.50;33.33;;;13.20;99.90;;;;;;4964004;28;20042;-75
2023/09/09 06:09:45;;;;;;;37.33;33.50;;;13.20;99.90;;;;;;4977774;28;20053;-76
2023/09/09 06:12:12;;;;;;;38.55;33.05;;;13.20;99.90;;;;;;4963249;28;20054;-75
2023/09/09 06:14:39;;;;;;;36.40;32.80;;;13.30;99.90;;;;;;4978876;28;21655;-75
2023/09/09 06:17:06;;;;;;;40.33;36.03;;;13.40;99.90;;;;;;4978128;28;20038;-74
2023/09/09 06:19:33;;;;;;;38.17;34.50;;;13.50;99.90;;;;;;4973699;28;20054;-75
2023/09/09 06:21:59;;;;;;;40.40;36.22;;;13.60;99.90;;;;;;4965710;28;20035;-74
2023/09/09 06:24:27;;;;;;;39.67;35.53;;;13.80;99.90;;;;;;4956625;28;20714;-74
2023/09/09 06:26:55;;;;;;;42.72;35.97;;;13.90;99.90;;;;;;4974895;28;20069;-74
2023/09/09 06:29:23;;;;;;;43.22;38.63;;;14.10;99.90;;;;;;4960025;28;20055;-74
2023/09/09 06:31:50;;;;;;;43.00;38.45;;;14.30;99.90;;;;;;4962862;28;20141;-75
2023/09/09 06:34:17;;;;;;;41.47;37.28;;;14.50;99.90;;;;;;4973513;28;20870;-76
2023/09/09 06:36:44;;;;;;;42.08;37.75;;;14.80;99.90;;;;;;4977396;28;20936;-75
2023/09/09 06:39:10;;;;;;;43.55;38.83;;;14.90;99.90;;;;;;4972527;28;20049;-75
2023/09/09 06:41:37;;;;;;;40.35;36.17;;;15.00;99.90;;;;;;4958319;28;20078;-75
2023/09/09 06:44:04;;;;;;;38.85;35.05;;;15.10;99.90;;;;;;4975452;28;20558;-75
2023/09/09 06:46:31;;;;;;;38.30;34.45;;;15.30;99.90;;;;;;4955354;28;20827;-74
2023/09/09 06:48:58;;;;;;;38.25;34.45;;;15.50;99.90;;;;;;4975548;28;20038;-75
2023/09/09 06:51:25;;;;;;;37.20;33.47;;;15.60;99.90;;;;;;4977262;28;20061;-75
2023/09/09 06:53:52;;;;;;;36.58;32.75;;;15.70;99.90;;;;;;4959512;28;20769;-73
2023/09/09 06:56:19;;;;;;;33.72;30.65;;;15.90;99.90;;;;;;4955305;28;20742;-74
2023/09/09 06:58:46;;;;;;;36.50;33.13;;;16.10;99.90;;;;;;4954631;28;20043;-75
2023/09/09 07:01:12;;;;;;;32.72;29.85;;;16.20;99.90;;;;;;4969198;28;20625;-74
2023/09/09 07:03:40;;;;;;;32.25;29.42;;;16.30;99.90;;;;;;4976130;28;20039;-75
2023/09/09 07:06:08;;;;;;;35.03;31.80;;;16.50;99.90;;;;;;4976263;28;20060;-74
2023/09/09 07:08:39;;;;;;;29.17;26.73;;;16.70;99.90;;;;;;4938824;28;20055;-75
2023/09/09 07:11:06;;;;;;;30.13;27.73;;;16.90;99.90;;;;;;4986266;28;20049;-75
2023/09/09 07:13:33;;;;;;;27.85;25.58;;;17.30;99.90;;;;;;4967633;28;20495;-74
2023/09/09 07:15:59;;;;;;;27.80;25.33;;;17.60;99.90;;;;;;4959057;28;20558;-75
2023/09/09 07:18:26;;;;;;;24.27;22.27;;;18.00;99.90;;;;;;4968624;28;20159;-74
2023/09/09 07:20:56;;;;;;;20.33;18.63;;;18.40;99.90;;;;;;4977956;28;20084;-76
2023/09/09 07:23:24;;;;;;;19.30;17.92;;;18.70;99.90;;;;;;4974326;28;20121;-74
2023/09/09 07:25:51;;;;;;;19.95;18.40;;;19.10;99.90;;;;;;4978746;28;20483;-75
2023/09/09 07:28:17;;;;;;;19.52;17.80;;;19.50;99.90;;;;;;4956388;28;20089;-75
2023/09/09 07:30:44;;;;;;;21.90;20.45;;;19.90;99.90;;;;;;4970767;28;20058;-76
2023/09/09 07:33:11;;;;;;;25.52;23.67;;;20.60;99.90;;;;;;4968921;28;20039;-75
2023/09/09 07:35:38;;;;;;;25.77;24.08;;;21.20;99.90;;;;;;4955736;28;20057;-75
2023/09/09 07:38:06;;;;;;;28.00;26.30;;;21.90;99.90;;;;;;4975237;28;20044;-75
2023/09/09 07:40:33;;;;;;;28.65;26.65;;;22.60;99.90;;;;;;4970321;28;20502;-74
2023/09/09 07:43:00;;;;;;;29.35;27.45;;;23.10;99.90;;;;;;4965162;28;20050;-74
2023/09/09 07:45:27;;;;;;;29.83;28.02;;;23.50;99.90;;;;;;4975289;28;20051;-74
2023/09/09 07:47:55;;;;;;;29.35;27.38;;;23.70;99.90;;;;;;4947703;28;20129;-76
2023/09/09 07:50:22;;;;;;;29.10;27.20;;;24.00;99.90;;;;;;4966467;28;20400;-75
2023/09/09 07:52:49;;;;;;;30.40;28.50;;;24.20;99.90;;;;;;4956884;28;20066;-74
2023/09/09 07:55:16;;;;;;;29.75;27.85;;;24.30;99.90;;;;;;4949947;28;20055;-74
2023/09/09 07:57:42;;;;;;;28.67;26.77;;;24.40;99.90;;;;;;4974225;28;20034;-75
2023/09/09 08:00:10;;;;;;;28.13;26.42;;;24.60;99.90;;;;;;4941104;28;20111;-75
2023/09/09 08:02:39;;;;;;;29.25;27.35;;;24.80;99.90;;;;;;4976815;28;20096;-74
2023/09/09 08:05:06;;;;;;;28.10;26.38;;;25.10;99.90;;;;;;4972944;28;20062;-75
2023/09/09 08:07:55;;;;;;;32.70;30.65;;;25.20;99.90;;;;;;4970573;28;20541;-74
2023/09/09 08:10:21;;;;;;;33.67;31.58;;;25.40;99.90;;;;;;4977700;28;20664;-74
2023/09/09 08:12:48;;;;;;;31.80;29.60;;;25.40;99.90;;;;;;4975827;28;20608;-75
2023/09/09 08:15:15;;;;;;;32.55;30.33;;;25.20;99.90;;;;;;4955499;28;20691;-76
2023/09/09 08:17:56;;;;;;;31.85;29.73;;;25.20;99.90;;;;;;4973364;28;20530;-75
2023/09/09 08:20:23;;;;;;;30.45;28.65;;;25.60;99.90;;;;;;4955514;28;20049;-75
2023/09/09 08:22:51;;;;;;;30.88;28.88;;;25.40;99.90;;;;;;4963497;28;20555;-75
2023/09/09 08:25:18;;;;;;;33.25;30.70;;;25.60;99.90;;;;;;4963160;28;20138;-76
2023/09/09 08:27:45;;;;;;;32.42;30.48;;;25.70;99.90;;;;;;4957540;28;20103;-75
2023/09/09 08:30:13;;;;;;;31.95;29.95;;;26.00;99.90;;;;;;4964244;28;20046;-75
2023/09/09 08:32:39;;;;;;;30.52;28.67;;;26.30;99.90;;;;;;4951229;28;20066;-75
2023/09/09 08:35:06;;;;;;;31.17;29.17;;;26.30;99.90;;;;;;4954604;28;20046;-75
2023/09/09 08:37:33;;;;;;;30.27;28.33;;;26.20;99.90;;;;;;4979215;28;20080;-75
2023/09/09 08:40:29;;;;;;;31.83;29.73;;;26.10;99.90;;;;;;5035716;28;20117;-74
2023/09/09 08:43:22;;;;;;;34.22;32.00;;;26.30;99.90;;;;;;4959386;28;20083;-75
2023/09/09 08:46:11;;;;;;;34.25;32.15;;;26.20;99.90;;;;;;4935395;28;20039;-74
2023/09/09 08:48:40;;;;;;;32.90;30.55;;;26.40;99.90;;;;;;4965188;28;20055;-75
2023/09/09 08:51:14;;;;;;;32.90;30.80;;;26.50;99.90;;;;;;4973610;28;20045;-75
2023/09/09 08:53:55;;;;;;;33.30;31.23;;;26.40;99.90;;;;;;4953299;28;20046;-74
2023/09/09 08:56:27;;;;;;;32.38;30.45;;;26.40;99.90;;;;;;4941467;28;20073;-74
2023/09/09 08:58:55;;;;;;;33.22;31.13;;;26.70;99.90;;;;;;4970279;28;20068;-75
2023/09/09 09:01:22;;;;;;;32.05;30.20;;;27.10;99.90;;;;;;4959509;28;20457;-75
2023/09/09 09:03:50;;;;;;;33.67;31.77;;;27.30;99.90;;;;;;4938950;28;20070;-74
2023/09/09 09:06:18;;;;;;;33.33;31.27;;;27.20;99.90;;;;;;4950503;28;20144;-75
2023/09/09 09:08:48;;;;;;;33.45;31.45;;;27.40;99.90;;;;;;4969488;28;20130;-74
2023/09/09 09:11:28;;;;;;;35.72;33.42;;;27.60;99.90;;;;;;4964785;28;20757;-74
2023/09/09 09:13:55;;;;;;;37.08;34.58;;;27.80;99.90;;;;;;4962727;28;20055;-75
2023/09/09 09:16:22;;;;;;;35.22;33.05;;;27.90;99.90;;;;;;4958596;28;20139;-75
2023/09/09 09:18:49;;;;;;;37.13;35.00;;;28.10;99.90;;;;;;4967407;28;20132;-74
2023/09/09 09:21:16;;;;;;;38.33;35.85;;;28.10;99.90;;;;;;4966306;28;20099;-74
2023/09/09 09:23:44;;;;;;;37.35;35.05;;;28.30;99.90;;;;;;4971197;28;20155;-75
2023/09/09 09:26:27;;;;;;;39.28;36.83;;;28.40;99.90;;;;;;4969651;28;20042;-74
2023/09/09 09:28:54;;;;;;;38.88;36.45;;;28.40;99.90;;;;;;4949844;28;21658;-75
2023/09/09 09:31:22;;;;;;;38.83;36.33;;;28.40;99.90;;;;;;4969523;28;20065;-74
2023/09/09 09:33:53;;;;;;;37.88;35.47;;;28.50;99.90;;;;;;4968351;28;20065;-75
2023/09/09 09:36:20;;;;;;;38.08;35.58;;;28.40;99.90;;;;;;4988970;28;20089;-74
2023/09/09 09:38:51;;;;;;;39.45;36.97;;;28.30;99.90;;;;;;4961009;28;20047;-74
2023/09/09 09:41:19;;;;;;;40.42;38.22;;;28.50;99.90;;;;;;5020956;28;20130;-74
2023/09/09 09:43:47;;;;;;;39.38;37.05;;;28.10;99.90;;;;;;4958831;28;20129;-75
2023/09/09 09:46:22;;;;;;;40.45;37.53;;;28.50;99.90;;;;;;4974027;28;20063;-73
2023/09/09 09:48:49;;;;;;;40.47;38.05;;;28.70;99.90;;;;;;4971950;28;20701;-73
2023/09/09 09:51:16;;;;;;;41.95;39.45;;;28.70;99.90;;;;;;4973227;28;20054;-72
2023/09/09 09:53:49;;;;;;;40.60;38.30;;;28.50;99.90;;;;;;4975699;28;20070;-74
2023/09/09 09:56:16;;;;;;;42.15;39.65;;;28.80;99.90;;;;;;4968594;28;20039;-72
2023/09/09 09:58:44;;;;;;;42.35;39.95;;;29.30;99.90;;;;;;4970874;28;20046;-75
2023/09/09 10:01:11;;;;;;;43.05;40.50;;;29.00;99.90;;;;;;4972901;28;20057;-76
2023/09/09 10:03:48;;;;;;;43.30;40.80;;;29.40;99.90;;;;;;4956614;28;20049;-73
2023/09/09 10:06:22;;;;;;;42.83;40.35;;;29.40;99.90;;;;;;4960876;28;20043;-74
2023/09/09 10:08:57;;;;;;;43.93;41.07;;;29.40;99.90;;;;;;4957714;28;21877;-73
2023/09/09 10:11:27;;;;;;;44.60;42.00;;;29.70;99.90;;;;;;4978073;28;20417;-73
2023/09/09 10:14:09;;;;;;;45.00;42.50;;;30.10;99.90;;;;;;4972369;28;20115;-72
2023/09/09 10:16:38;;;;;;;45.25;42.65;;;30.20;99.90;;;;;;4963321;28;20057;-72
2023/09/09 10:19:06;;;;;;;44.13;41.45;;;30.20;99.90;;;;;;5032769;28;20048;-73
2023/09/09 10:21:34;;;;;;;45.55;42.95;;;30.30;99.90;;;;;;4969204;28;20137;-73
2023/09/09 10:24:10;;;;;;;45.92;43.22;;;30.10;99.90;;;;;;4974005;28;20053;-74
2023/09/09 10:26:38;;;;;;;47.17;44.50;;;30.20;99.90;;;;;;4958666;28;20042;-72
2023/09/09 10:29:05;;;;;;;46.95;44.35;;;30.30;99.90;;;;;;4952162;28;20133;-71
2023/09/09 10:31:34;;;;;;;46.60;43.80;;;30.20;99.90;;;;;;4971038;28;20149;-73
2023/09/09 10:34:09;;;;;;;47.05;44.15;;;30.20;99.90;;;;;;4968639;28;20217;-72
2023/09/09 10:36:39;;;;;;;46.50;43.70;;;30.30;99.90;;;;;;4977313;28;20047;-73
2023/09/09 10:39:27;;;;;;;46.00;43.35;;;30.50;99.90;;;;;;4956883;28;20069;-73
2023/09/09 10:41:56;;;;;;;45.80;42.88;;;30.40;99.90;;;;;;4950210;28;20114;-72
2023/09/09 10:44:22;;;;;;;46.63;43.63;;;30.40;99.90;;;;;;4963363;28;20069;-73
2023/09/09 10:46:57;;;;;;;48.42;45.53;;;30.20;99.90;;;;;;4960461;28;20459;-73
2023/09/09 10:49:26;;;;;;;46.83;44.15;;;30.20;99.90;;;;;;4978875;28;20597;-73
2023/09/09 10:51:54;;;;;;;48.17;45.45;;;30.30;99.90;;;;;;4961273;28;20135;-74
2023/09/09 10:54:25;;;;;;;50.50;47.65;;;29.30;99.90;;;;;;4952361;28;21256;-75
2023/09/09 10:56:55;;;;;;;48.03;45.22;;;29.50;99.90;;;;;;4956681;28;20042;-71
2023/09/09 10:59:31;;;;;;;49.05;46.05;;;29.30;99.90;;;;;;4957386;28;20046;-72
2023/09/09 11:02:10;;;;;;;49.08;45.80;;;29.20;99.90;;;;;;4978432;28;20105;-73
2023/09/09 11:04:41;;;;;;;48.88;45.85;;;29.30;99.90;;;;;;4980054;28;20145;-73
2023/09/09 11:07:10;;;;;;;47.80;44.80;;;29.90;99.90;;;;;;4969726;28;20099;-73
2023/09/09 11:09:37;;;;;;;47.72;44.38;;;30.10;99.90;;;;;;4974466;28;20043;-72
2023/09/09 11:12:14;;;;;;;46.55;43.95;;;30.30;99.90;;;;;;4953622;28;20062;-73
2023/09/09 11:14:46;;;;;;;48.28;45.40;;;30.30;99.90;;;;;;4960356;28;20065;-73
2023/09/09 11:17:14;;;;;;;47.95;45.35;;;30.30;99.90;;;;;;4965165;28;20069;-73
2023/09/09 11:19:42;;;;;;;48.30;45.50;;;30.50;99.90;;;;;;4966510;28;20057;-72
2023/09/09 11:22:11;;;;;;;49.88;47.17;;;30.60;99.90;;;;;;5032545;28;20039;-72
2023/09/09 11:24:38;;;;;;;51.10;48.25;;;30.60;99.90;;;;;;4969064;28;20046;-72
2023/09/09 11:27:05;;;;;;;49.45;46.40;;;30.60;99.90;;;;;;4957433;28;20054;-72
2023/09/09 11:29:32;;;;;;;51.03;48.13;;;30.50;99.90;;;;;;4966600;28;20066;-75
2023/09/09 11:32:09;;;;;;;50.78;47.78;;;30.10;99.90;;;;;;4973276;28;20502;-72
2023/09/09 11:34:36;;;;;;;50.50;47.47;;;30.20;99.90;;;;;;4954264;28;20112;-73
2023/09/09 11:37:04;;;;;;;52.17;49.17;;;30.30;99.90;;;;;;4961264;28;20072;-73
2023/09/09 11:39:39;;;;;;;50.38;47.08;;;30.40;99.90;;;;;;4965715;28;20039;-73
2023/09/09 11:42:06;;;;;;;38.28;35.88;;;30.60;99.90;;;;;;4979747;28;21059;-73
2023/09/09 11:44:41;;;;;;;52.25;49.08;;;30.60;99.90;;;;;;4967324;28;20145;-73
2023/09/09 11:47:08;;;;;;;51.53;48.45;;;30.60;99.90;;;;;;5008460;28;20058;-73
2023/09/09 11:49:41;;;;;;;50.35;47.53;;;30.30;99.90;;;;;;4943489;28;20055;-72
2023/09/09 11:52:08;;;;;;;50.60;47.60;;;30.30;99.90;;;;;;4952304;28;20166;-73
2023/09/09 11:54:36;;;;;;;49.83;47.22;;;30.50;99.90;;;;;;4972735;28;20046;-72
2023/09/09 11:57:08;;;;;;;49.97;47.00;;;30.50;99.90;;;;;;4976133;28;20038;-72
2023/09/09 11:59:49;;;;;;;49.78;47.08;;;30.60;99.90;;;;;;4967991;28;20553;-73
2023/09/09 12:02:20;;;;;;;50.00;47.30;;;30.10;99.90;;;;;;4958730;28;20054;-72
2023/09/09 12:04:58;;;;;;;49.58;46.75;;;30.20;99.90;;;;;;4973361;28;20522;-72
2023/09/09 12:07:32;;;;;;;52.45;49.33;;;30.30;99.90;;;;;;4960153;28;20038;-73
2023/09/09 12:10:00;;;;;;;52.60;49.63;;;30.40;99.90;;;;;;4958473;28;20138;-72
2023/09/09 12:12:28;;;;;;;50.10;47.08;;;30.50;99.90;;;;;;4959604;28;20058;-72
2023/09/09 12:14:57;;;;;;;50.45;47.55;;;30.60;99.90;;;;;;4964406;28;20058;-73
2023/09/09 12:17:25;;;;;;;50.35;47.22;;;30.70;99.90;;;;;;4959518;28;20050;-74
2023/09/09 12:19:56;;;;;;;51.10;48.30;;;30.80;99.90;;;;;;4953712;28;20070;-73
2023/09/09 12:22:40;;;;;;;51.70;48.90;;;30.80;99.90;;;;;;4980314;28;20077;-73
2023/09/09 12:25:31;;;;;;;51.63;48.63;;;30.60;99.90;;;;;;4964636;28;20070;-73
2023/09/09 12:27:58;;;;;;;52.65;49.75;;;30.60;99.90;;;;;;4951462;28;20410;-72
2023/09/09 12:30:32;;;;;;;50.75;47.95;;;30.70;99.90;;;;;;4949895;28;20136;-71
2023/09/09 12:33:10;;;;;;;52.63;49.80;;;30.70;99.90;;;;;;4966540;28;20605;-73
2023/09/09 12:35:51;;;;;;;50.35;47.38;;;31.00;99.90;;;;;;5036440;28;20046;-72